sensor_id;sensor_type;location;lat;lon;timestamp;temperature;humidity
38848;DHT22;24602;44.780;20.408;2022-07-23T00:00:26;27.90;56.10
38848;DHT22;24602;44.780;20.408;2022-07-23T00:02:53;27.90;58.20
38848;DHT22;24602;44.780;20.408;2022-07-23T00:05:21;27.80;59.40
38848;DHT22;24602;44.780;20.408;2022-07-23T00:07:48;27.70;59.90
38848;DHT22;24602;44.780;20.408;2022-07-23T00:10:15;27.60;59.40
38848;DHT22;24602;44.780;20.408;2022-07-23T00:12:43;27.60;58.80
38848;DHT22;24602;44.780;20.408;2022-07-23T00:15:18;27.60;58.20
38848;DHT22;24602;44.780;20.408;2022-07-23T00:17:46;27.50;58.40
38848;DHT22;24602;44.780;20.408;2022-07-23T00:20:13;27.50;59.50
38848;DHT22;24602;44.780;20.408;2022-07-23T00:22:54;27.40;59.90
38848;DHT22;24602;44.780;20.408;2022-07-23T00:25:22;27.40;60.20
38848;DHT22;24602;44.780;20.408;2022-07-23T00:27:55;27.40;59.80
38848;DHT22;24602;44.780;20.408;2022-07-23T00:30:23;27.40;59.50
38848;DHT22;24602;44.780;20.408;2022-07-23T00:32:52;27.50;59.10
38848;DHT22;24602;44.780;20.408;2022-07-23T00:35:25;27.50;58.50
38848;DHT22;24602;44.780;20.408;2022-07-23T00:37:54;27.50;58.40
38848;DHT22;24602;44.780;20.408;2022-07-23T00:40:22;27.50;58.50
38848;DHT22;24602;44.780;20.408;2022-07-23T00:42:50;27.40;58.50
38848;DHT22;24602;44.780;20.408;2022-07-23T00:45:18;27.40;59.10
38848;DHT22;24602;44.780;20.408;2022-07-23T00:47:46;27.40;60.00
38848;DHT22;24602;44.780;20.408;2022-07-23T00:50:13;27.30;60.60
38848;DHT22;24602;44.780;20.408;2022-07-23T00:52:41;27.10;60.80
38848;DHT22;24602;44.780;20.408;2022-07-23T00:55:10;27.00;60.90
38848;DHT22;24602;44.780;20.408;2022-07-23T00:57:39;26.80;60.90
38848;DHT22;24602;44.780;20.408;2022-07-23T01:00:10;26.70;60.60
38848;DHT22;24602;44.780;20.408;2022-07-23T01:02:38;26.70;60.60
38848;DHT22;24602;44.780;20.408;2022-07-23T01:05:06;26.70;60.90
38848;DHT22;24602;44.780;20.408;2022-07-23T01:07:34;26.60;60.80
38848;DHT22;24602;44.780;20.408;2022-07-23T01:10:04;26.50;61.90
38848;DHT22;24602;44.780;20.408;2022-07-23T01:12:32;26.40;62.40
38848;DHT22;24602;44.780;20.408;2022-07-23T01:15:00;26.40;62.80
38848;DHT22;24602;44.780;20.408;2022-07-23T01:17:30;26.40;62.70
38848;DHT22;24602;44.780;20.408;2022-07-23T01:19:58;26.50;62.70
38848;DHT22;24602;44.780;20.408;2022-07-23T01:22:29;26.50;63.10
38848;DHT22;24602;44.780;20.408;2022-07-23T01:24:57;26.30;64.00
38848;DHT22;24602;44.780;20.408;2022-07-23T01:27:26;26.30;64.80
38848;DHT22;24602;44.780;20.408;2022-07-23T01:30:03;26.30;65.50
38848;DHT22;24602;44.780;20.408;2022-07-23T01:32:31;26.30;66.00
38848;DHT22;24602;44.780;20.408;2022-07-23T01:34:58;26.30;65.40
38848;DHT22;24602;44.780;20.408;2022-07-23T01:37:26;26.20;63.10
38848;DHT22;24602;44.780;20.408;2022-07-23T01:39:54;26.20;59.60
38848;DHT22;24602;44.780;20.408;2022-07-23T01:42:22;26.10;58.90
38848;DHT22;24602;44.780;20.408;2022-07-23T01:44:50;26.10;58.50
38848;DHT22;24602;44.780;20.408;2022-07-23T01:47:20;26.20;58.30
38848;DHT22;24602;44.780;20.408;2022-07-23T01:49:51;26.20;59.30
38848;DHT22;24602;44.780;20.408;2022-07-23T01:52:29;26.20;59.30
38848;DHT22;24602;44.780;20.408;2022-07-23T01:54:56;26.20;59.90
38848;DHT22;24602;44.780;20.408;2022-07-23T01:57:23;26.20;60.00
38848;DHT22;24602;44.780;20.408;2022-07-23T01:59:51;26.20;59.90
38848;DHT22;24602;44.780;20.408;2022-07-23T02:02:20;26.20;59.60
38848;DHT22;24602;44.780;20.408;2022-07-23T02:04:48;26.20;59.00
38848;DHT22;24602;44.780;20.408;2022-07-23T02:07:18;26.20;59.50
38848;DHT22;24602;44.780;20.408;2022-07-23T02:09:45;26.20;60.50
38848;DHT22;24602;44.780;20.408;2022-07-23T02:12:15;26.20;61.30
38848;DHT22;24602;44.780;20.408;2022-07-23T02:14:44;26.20;62.40
38848;DHT22;24602;44.780;20.408;2022-07-23T02:17:11;26.20;63.50
38848;DHT22;24602;44.780;20.408;2022-07-23T02:19:38;26.20;62.60
38848;DHT22;24602;44.780;20.408;2022-07-23T02:22:06;26.10;61.50
38848;DHT22;24602;44.780;20.408;2022-07-23T02:24:33;26.10;61.10
38848;DHT22;24602;44.780;20.408;2022-07-23T02:27:01;26.10;60.60
38848;DHT22;24602;44.780;20.408;2022-07-23T02:29:28;26.00;60.20
38848;DHT22;24602;44.780;20.408;2022-07-23T02:31:55;25.90;60.20
38848;DHT22;24602;44.780;20.408;2022-07-23T02:34:23;25.90;60.20
38848;DHT22;24602;44.780;20.408;2022-07-23T02:36:51;25.90;60.50
38848;DHT22;24602;44.780;20.408;2022-07-23T02:39:20;25.90;60.80
38848;DHT22;24602;44.780;20.408;2022-07-23T02:41:48;25.90;61.10
38848;DHT22;24602;44.780;20.408;2022-07-23T02:44:15;25.80;61.20
38848;DHT22;24602;44.780;20.408;2022-07-23T02:46:46;25.80;61.50
38848;DHT22;24602;44.780;20.408;2022-07-23T02:49:13;25.80;61.90
38848;DHT22;24602;44.780;20.408;2022-07-23T02:51:41;25.80;62.50
38848;DHT22;24602;44.780;20.408;2022-07-23T02:54:09;25.70;63.50
38848;DHT22;24602;44.780;20.408;2022-07-23T02:56:36;25.70;64.50
38848;DHT22;24602;44.780;20.408;2022-07-23T02:59:04;25.70;65.50
38848;DHT22;24602;44.780;20.408;2022-07-23T03:01:32;25.70;66.60
38848;DHT22;24602;44.780;20.408;2022-07-23T03:03:59;25.60;67.50
38848;DHT22;24602;44.780;20.408;2022-07-23T03:06:26;25.60;68.20
38848;DHT22;24602;44.780;20.408;2022-07-23T03:08:54;25.40;69.00
38848;DHT22;24602;44.780;20.408;2022-07-23T03:11:21;25.40;69.70
38848;DHT22;24602;44.780;20.408;2022-07-23T03:13:49;25.30;70.30
38848;DHT22;24602;44.780;20.408;2022-07-23T03:16:16;25.20;69.10
38848;DHT22;24602;44.780;20.408;2022-07-23T03:18:43;25.20;69.90
38848;DHT22;24602;44.780;20.408;2022-07-23T03:21:12;25.10;67.90
38848;DHT22;24602;44.780;20.408;2022-07-23T03:23:40;25.20;67.60
38848;DHT22;24602;44.780;20.408;2022-07-23T03:26:07;25.30;68.10
38848;DHT22;24602;44.780;20.408;2022-07-23T03:28:34;25.30;68.70
38848;DHT22;24602;44.780;20.408;2022-07-23T03:31:01;25.20;69.00
38848;DHT22;24602;44.780;20.408;2022-07-23T03:33:29;25.20;69.90
38848;DHT22;24602;44.780;20.408;2022-07-23T03:35:56;25.20;70.30
38848;DHT22;24602;44.780;20.408;2022-07-23T03:38:27;25.20;70.40
38848;DHT22;24602;44.780;20.408;2022-07-23T03:40:54;25.20;70.60
38848;DHT22;24602;44.780;20.408;2022-07-23T03:43:21;25.20;71.30
38848;DHT22;24602;44.780;20.408;2022-07-23T03:45:51;25.20;71.50
38848;DHT22;24602;44.780;20.408;2022-07-23T03:48:19;25.20;69.90
38848;DHT22;24602;44.780;20.408;2022-07-23T03:50:49;25.30;68.80
38848;DHT22;24602;44.780;20.408;2022-07-23T03:53:16;25.40;68.10
38848;DHT22;24602;44.780;20.408;2022-07-23T03:55:46;25.50;67.00
38848;DHT22;24602;44.780;20.408;2022-07-23T03:58:13;25.60;65.50
38848;DHT22;24602;44.780;20.408;2022-07-23T04:00:43;25.60;67.60
38848;DHT22;24602;44.780;20.408;2022-07-23T04:03:10;25.60;69.30
38848;DHT22;24602;44.780;20.408;2022-07-23T04:05:38;25.70;69.40
38848;DHT22;24602;44.780;20.408;2022-07-23T04:08:07;25.70;69.40
38848;DHT22;24602;44.780;20.408;2022-07-23T04:10:38;25.60;69.60
38848;DHT22;24602;44.780;20.408;2022-07-23T04:13:07;25.60;70.20
38848;DHT22;24602;44.780;20.408;2022-07-23T04:15:35;25.50;70.00
38848;DHT22;24602;44.780;20.408;2022-07-23T04:18:02;25.50;70.20
38848;DHT22;24602;44.780;20.408;2022-07-23T04:20:44;25.40;70.60
38848;DHT22;24602;44.780;20.408;2022-07-23T04:23:12;25.40;71.70
38848;DHT22;24602;44.780;20.408;2022-07-23T04:25:40;25.40;72.80
38848;DHT22;24602;44.780;20.408;2022-07-23T04:28:08;25.30;73.50
38848;DHT22;24602;44.780;20.408;2022-07-23T04:30:35;25.40;73.60
38848;DHT22;24602;44.780;20.408;2022-07-23T04:33:03;25.40;71.50
38848;DHT22;24602;44.780;20.408;2022-07-23T04:35:36;25.50;68.00
38848;DHT22;24602;44.780;20.408;2022-07-23T04:38:12;25.40;66.30
38848;DHT22;24602;44.780;20.408;2022-07-23T04:40:40;25.40;65.90
38848;DHT22;24602;44.780;20.408;2022-07-23T04:43:07;25.30;66.20
38848;DHT22;24602;44.780;20.408;2022-07-23T04:45:42;25.30;66.50
38848;DHT22;24602;44.780;20.408;2022-07-23T04:48:10;25.40;67.10
38848;DHT22;24602;44.780;20.408;2022-07-23T04:50:38;25.40;67.80
38848;DHT22;24602;44.780;20.408;2022-07-23T04:53:14;25.50;68.20
38848;DHT22;24602;44.780;20.408;2022-07-23T04:55:42;25.50;68.80
38848;DHT22;24602;44.780;20.408;2022-07-23T04:58:10;25.50;69.50
38848;DHT22;24602;44.780;20.408;2022-07-23T05:00:38;25.50;69.90
38848;DHT22;24602;44.780;20.408;2022-07-23T05:03:05;25.60;70.90
38848;DHT22;24602;44.780;20.408;2022-07-23T05:05:32;25.60;72.40
38848;DHT22;24602;44.780;20.408;2022-07-23T05:08:09;25.60;73.60
38848;DHT22;24602;44.780;20.408;2022-07-23T05:10:38;25.70;74.70
38848;DHT22;24602;44.780;20.408;2022-07-23T05:13:05;25.80;75.40
38848;DHT22;24602;44.780;20.408;2022-07-23T05:15:33;25.80;75.20
38848;DHT22;24602;44.780;20.408;2022-07-23T05:18:01;25.90;74.70
38848;DHT22;24602;44.780;20.408;2022-07-23T05:20:29;25.90;74.50
38848;DHT22;24602;44.780;20.408;2022-07-23T05:22:56;25.90;75.00
38848;DHT22;24602;44.780;20.408;2022-07-23T05:25:24;25.90;75.60
38848;DHT22;24602;44.780;20.408;2022-07-23T05:27:51;26.00;74.50
38848;DHT22;24602;44.780;20.408;2022-07-23T05:30:18;26.00;75.40
38848;DHT22;24602;44.780;20.408;2022-07-23T05:32:49;26.00;74.10
38848;DHT22;24602;44.780;20.408;2022-07-23T05:35:20;26.00;75.60
38848;DHT22;24602;44.780;20.408;2022-07-23T05:38:02;26.00;73.20
38848;DHT22;24602;44.780;20.408;2022-07-23T05:40:31;26.00;75.20
38848;DHT22;24602;44.780;20.408;2022-07-23T05:42:59;26.10;76.30
38848;DHT22;24602;44.780;20.408;2022-07-23T05:45:27;26.10;74.70
38848;DHT22;24602;44.780;20.408;2022-07-23T05:47:54;26.20;75.30
38848;DHT22;24602;44.780;20.408;2022-07-23T05:50:27;26.20;76.20
38848;DHT22;24602;44.780;20.408;2022-07-23T05:53:08;26.30;76.60
38848;DHT22;24602;44.780;20.408;2022-07-23T05:56:01;26.30;76.20
38848;DHT22;24602;44.780;20.408;2022-07-23T05:58:31;26.40;75.60
38848;DHT22;24602;44.780;20.408;2022-07-23T06:00:58;26.40;75.30
38848;DHT22;24602;44.780;20.408;2022-07-23T06:03:28;26.50;75.10
38848;DHT22;24602;44.780;20.408;2022-07-23T06:05:56;26.50;75.60
38848;DHT22;24602;44.780;20.408;2022-07-23T06:08:24;26.60;76.20
38848;DHT22;24602;44.780;20.408;2022-07-23T06:10:52;26.60;76.30
38848;DHT22;24602;44.780;20.408;2022-07-23T06:13:20;26.60;74.70
38848;DHT22;24602;44.780;20.408;2022-07-23T06:15:47;26.60;74.60
38848;DHT22;24602;44.780;20.408;2022-07-23T06:18:15;26.60;74.70
38848;DHT22;24602;44.780;20.408;2022-07-23T06:20:42;26.70;74.90
38848;DHT22;24602;44.780;20.408;2022-07-23T06:23:14;26.70;74.80
38848;DHT22;24602;44.780;20.408;2022-07-23T06:25:42;26.70;74.60
38848;DHT22;24602;44.780;20.408;2022-07-23T06:28:09;26.80;74.30
38848;DHT22;24602;44.780;20.408;2022-07-23T06:30:37;26.70;73.10
38848;DHT22;24602;44.780;20.408;2022-07-23T06:33:05;26.70;71.20
38848;DHT22;24602;44.780;20.408;2022-07-23T06:35:32;26.70;71.30
38848;DHT22;24602;44.780;20.408;2022-07-23T06:38:01;26.70;72.10
38848;DHT22;24602;44.780;20.408;2022-07-23T06:40:29;26.80;73.00
38848;DHT22;24602;44.780;20.408;2022-07-23T06:42:56;26.80;72.80
38848;DHT22;24602;44.780;20.408;2022-07-23T06:45:23;26.90;73.00
38848;DHT22;24602;44.780;20.408;2022-07-23T06:47:53;27.10;74.70
38848;DHT22;24602;44.780;20.408;2022-07-23T06:50:20;27.10;76.30
38848;DHT22;24602;44.780;20.408;2022-07-23T06:52:48;27.20;77.90
38848;DHT22;24602;44.780;20.408;2022-07-23T06:55:16;27.30;78.60
38848;DHT22;24602;44.780;20.408;2022-07-23T06:57:44;27.30;78.80
38848;DHT22;24602;44.780;20.408;2022-07-23T07:00:12;27.40;81.50
38848;DHT22;24602;44.780;20.408;2022-07-23T07:02:41;27.40;81.90
38848;DHT22;24602;44.780;20.408;2022-07-23T07:05:09;27.40;81.30
38848;DHT22;24602;44.780;20.408;2022-07-23T07:07:36;27.50;81.40
38848;DHT22;24602;44.780;20.408;2022-07-23T07:10:04;27.50;80.70
38848;DHT22;24602;44.780;20.408;2022-07-23T07:12:31;27.50;84.20
38848;DHT22;24602;44.780;20.408;2022-07-23T07:14:58;27.50;85.30
38848;DHT22;24602;44.780;20.408;2022-07-23T07:17:26;27.50;85.60
38848;DHT22;24602;44.780;20.408;2022-07-23T07:19:53;27.60;79.90
38848;DHT22;24602;44.780;20.408;2022-07-23T07:22:20;27.60;73.10
38848;DHT22;24602;44.780;20.408;2022-07-23T07:24:47;27.70;74.30
38848;DHT22;24602;44.780;20.408;2022-07-23T07:27:15;27.70;74.50
38848;DHT22;24602;44.780;20.408;2022-07-23T07:29:44;27.80;70.20
38848;DHT22;24602;44.780;20.408;2022-07-23T07:32:12;27.90;66.80
38848;DHT22;24602;44.780;20.408;2022-07-23T07:34:59;28.00;64.80
38848;DHT22;24602;44.780;20.408;2022-07-23T07:37:26;28.00;64.80
38848;DHT22;24602;44.780;20.408;2022-07-23T07:39:53;28.10;65.30
38848;DHT22;24602;44.780;20.408;2022-07-23T07:42:21;28.20;65.90
38848;DHT22;24602;44.780;20.408;2022-07-23T07:44:48;28.20;66.50
38848;DHT22;24602;44.780;20.408;2022-07-23T07:47:16;28.30;66.00
38848;DHT22;24602;44.780;20.408;2022-07-23T07:49:43;28.40;65.20
38848;DHT22;24602;44.780;20.408;2022-07-23T07:52:10;28.40;64.80
38848;DHT22;24602;44.780;20.408;2022-07-23T07:54:38;28.50;66.40
38848;DHT22;24602;44.780;20.408;2022-07-23T07:57:05;28.50;66.80
38848;DHT22;24602;44.780;20.408;2022-07-23T07:59:34;28.60;65.40
38848;DHT22;24602;44.780;20.408;2022-07-23T08:02:02;28.70;63.80
38848;DHT22;24602;44.780;20.408;2022-07-23T08:04:29;28.60;63.70
38848;DHT22;24602;44.780;20.408;2022-07-23T08:06:56;28.70;63.90
38848;DHT22;24602;44.780;20.408;2022-07-23T08:09:23;28.80;64.10
38848;DHT22;24602;44.780;20.408;2022-07-23T08:11:51;28.80;63.90
38848;DHT22;24602;44.780;20.408;2022-07-23T08:14:18;28.90;61.80
38848;DHT22;24602;44.780;20.408;2022-07-23T08:16:46;28.90;61.30
38848;DHT22;24602;44.780;20.408;2022-07-23T08:19:33;28.90;60.40
38848;DHT22;24602;44.780;20.408;2022-07-23T08:22:00;29.00;61.00
38848;DHT22;24602;44.780;20.408;2022-07-23T08:24:27;29.10;62.10
38848;DHT22;24602;44.780;20.408;2022-07-23T08:26:55;29.20;61.70
38848;DHT22;24602;44.780;20.408;2022-07-23T08:29:22;29.30;60.80
38848;DHT22;24602;44.780;20.408;2022-07-23T08:31:53;29.30;60.70
38848;DHT22;24602;44.780;20.408;2022-07-23T08:34:20;29.40;60.30
38848;DHT22;24602;44.780;20.408;2022-07-23T08:36:48;29.40;61.00
38848;DHT22;24602;44.780;20.408;2022-07-23T08:39:15;29.50;61.80
38848;DHT22;24602;44.780;20.408;2022-07-23T08:41:42;29.60;60.30
38848;DHT22;24602;44.780;20.408;2022-07-23T08:44:10;29.70;58.50
38848;DHT22;24602;44.780;20.408;2022-07-23T08:46:39;29.70;58.00
38848;DHT22;24602;44.780;20.408;2022-07-23T08:49:10;29.80;58.80
38848;DHT22;24602;44.780;20.408;2022-07-23T08:51:38;29.80;58.80
38848;DHT22;24602;44.780;20.408;2022-07-23T08:54:05;29.90;58.30
38848;DHT22;24602;44.780;20.408;2022-07-23T08:56:32;29.90;58.60
38848;DHT22;24602;44.780;20.408;2022-07-23T08:58:59;29.90;58.40
38848;DHT22;24602;44.780;20.408;2022-07-23T09:01:27;30.00;58.20
38848;DHT22;24602;44.780;20.408;2022-07-23T09:03:54;29.90;58.50
38848;DHT22;24602;44.780;20.408;2022-07-23T09:06:21;30.10;57.60
38848;DHT22;24602;44.780;20.408;2022-07-23T09:08:48;30.20;57.90
38848;DHT22;24602;44.780;20.408;2022-07-23T09:11:17;30.30;58.20
38848;DHT22;24602;44.780;20.408;2022-07-23T09:13:51;30.40;57.20
38848;DHT22;24602;44.780;20.408;2022-07-23T09:16:23;30.50;56.40
38848;DHT22;24602;44.780;20.408;2022-07-23T09:18:58;30.50;55.90
38848;DHT22;24602;44.780;20.408;2022-07-23T09:21:29;30.60;55.90
38848;DHT22;24602;44.780;20.408;2022-07-23T09:24:00;30.70;56.10
38848;DHT22;24602;44.780;20.408;2022-07-23T09:26:40;30.70;55.20
38848;DHT22;24602;44.780;20.408;2022-07-23T09:29:16;30.80;55.60
38848;DHT22;24602;44.780;20.408;2022-07-23T09:31:51;30.90;54.20
38848;DHT22;24602;44.780;20.408;2022-07-23T09:34:21;31.00;53.80
38848;DHT22;24602;44.780;20.408;2022-07-23T09:36:58;31.10;54.50
38848;DHT22;24602;44.780;20.408;2022-07-23T09:39:30;31.20;54.60
38848;DHT22;24602;44.780;20.408;2022-07-23T09:42:20;31.10;55.30
38848;DHT22;24602;44.780;20.408;2022-07-23T09:44:48;31.20;55.20
38848;DHT22;24602;44.780;20.408;2022-07-23T09:47:17;31.20;56.30
38848;DHT22;24602;44.780;20.408;2022-07-23T09:50:04;31.20;56.00
38848;DHT22;24602;44.780;20.408;2022-07-23T09:52:35;31.20;56.20
38848;DHT22;24602;44.780;20.408;2022-07-23T09:55:05;31.10;56.40
38848;DHT22;24602;44.780;20.408;2022-07-23T09:57:33;31.20;56.10
38848;DHT22;24602;44.780;20.408;2022-07-23T10:00:03;31.20;55.80
38848;DHT22;24602;44.780;20.408;2022-07-23T10:02:34;31.20;56.10
38848;DHT22;24602;44.780;20.408;2022-07-23T10:05:21;31.10;55.90
38848;DHT22;24602;44.780;20.408;2022-07-23T10:08:19;31.20;55.90
38848;DHT22;24602;44.780;20.408;2022-07-23T10:11:08;31.10;55.20
38848;DHT22;24602;44.780;20.408;2022-07-23T10:13:47;31.20;54.30
38848;DHT22;24602;44.780;20.408;2022-07-23T10:16:48;31.30;55.20
38848;DHT22;24602;44.780;20.408;2022-07-23T10:19:16;31.30;54.20
38848;DHT22;24602;44.780;20.408;2022-07-23T10:21:54;31.40;53.80
38848;DHT22;24602;44.780;20.408;2022-07-23T10:27:20;31.50;53.90
38848;DHT22;24602;44.780;20.408;2022-07-23T10:30:15;31.50;53.70
38848;DHT22;24602;44.780;20.408;2022-07-23T10:33:12;31.60;53.10
38848;DHT22;24602;44.780;20.408;2022-07-23T10:35:59;31.60;53.10
38848;DHT22;24602;44.780;20.408;2022-07-23T10:41:05;31.80;53.80
38848;DHT22;24602;44.780;20.408;2022-07-23T10:43:33;31.80;53.20
38848;DHT22;24602;44.780;20.408;2022-07-23T10:46:23;31.90;52.70
38848;DHT22;24602;44.780;20.408;2022-07-23T10:49:31;31.90;51.90
38848;DHT22;24602;44.780;20.408;2022-07-23T10:54:44;32.00;51.20
38848;DHT22;24602;44.780;20.408;2022-07-23T10:57:13;32.00;51.10
38848;DHT22;24602;44.780;20.408;2022-07-23T11:02:31;32.10;50.40
38848;DHT22;24602;44.780;20.408;2022-07-23T11:05:05;32.20;51.00
38848;DHT22;24602;44.780;20.408;2022-07-23T11:07:33;32.20;51.20
38848;DHT22;24602;44.780;20.408;2022-07-23T11:10:01;32.20;51.00
38848;DHT22;24602;44.780;20.408;2022-07-23T11:15:14;32.40;50.40
38848;DHT22;24602;44.780;20.408;2022-07-23T11:20:20;32.50;50.80
38848;DHT22;24602;44.780;20.408;2022-07-23T11:22:58;32.60;50.40
38848;DHT22;24602;44.780;20.408;2022-07-23T11:28:08;32.70;50.90
38848;DHT22;24602;44.780;20.408;2022-07-23T11:30:37;32.80;49.70
38848;DHT22;24602;44.780;20.408;2022-07-23T11:35:36;33.20;49.70
38848;DHT22;24602;44.780;20.408;2022-07-23T11:40:39;33.30;49.00
38848;DHT22;24602;44.780;20.408;2022-07-23T11:43:10;33.30;48.40
38848;DHT22;24602;44.780;20.408;2022-07-23T11:45:40;33.30;47.90
38848;DHT22;24602;44.780;20.408;2022-07-23T11:48:15;33.40;48.10
38848;DHT22;24602;44.780;20.408;2022-07-23T11:50:42;33.50;49.00
38848;DHT22;24602;44.780;20.408;2022-07-23T11:53:10;33.60;48.50
38848;DHT22;24602;44.780;20.408;2022-07-23T11:55:37;33.70;47.40
38848;DHT22;24602;44.780;20.408;2022-07-23T11:58:04;33.80;47.40
38848;DHT22;24602;44.780;20.408;2022-07-23T12:00:32;33.80;47.30
38848;DHT22;24602;44.780;20.408;2022-07-23T12:03:07;33.80;46.50
38848;DHT22;24602;44.780;20.408;2022-07-23T12:05:37;33.90;46.70
38848;DHT22;24602;44.780;20.408;2022-07-23T12:08:06;34.10;44.90
38848;DHT22;24602;44.780;20.408;2022-07-23T12:10:42;34.20;43.80
38848;DHT22;24602;44.780;20.408;2022-07-23T12:13:15;34.50;43.80
38848;DHT22;24602;44.780;20.408;2022-07-23T12:15:45;34.50;43.40
38848;DHT22;24602;44.780;20.408;2022-07-23T12:18:19;34.60;42.90
38848;DHT22;24602;44.780;20.408;2022-07-23T12:20:49;34.60;43.00
38848;DHT22;24602;44.780;20.408;2022-07-23T12:23:18;34.70;42.60
38848;DHT22;24602;44.780;20.408;2022-07-23T12:25:48;34.80;41.30
38848;DHT22;24602;44.780;20.408;2022-07-23T12:28:28;34.90;39.00
38848;DHT22;24602;44.780;20.408;2022-07-23T12:30:57;35.00;39.40
38848;DHT22;24602;44.780;20.408;2022-07-23T12:33:31;35.10;39.10
38848;DHT22;24602;44.780;20.408;2022-07-23T12:36:05;35.20;39.10
38848;DHT22;24602;44.780;20.408;2022-07-23T12:38:40;35.40;37.50
38848;DHT22;24602;44.780;20.408;2022-07-23T12:41:07;35.50;38.00
38848;DHT22;24602;44.780;20.408;2022-07-23T12:43:40;35.60;37.10
38848;DHT22;24602;44.780;20.408;2022-07-23T12:46:16;35.80;37.10
38848;DHT22;24602;44.780;20.408;2022-07-23T12:51:24;36.00;36.50
38848;DHT22;24602;44.780;20.408;2022-07-23T12:53:54;36.20;37.40
38848;DHT22;24602;44.780;20.408;2022-07-23T12:56:32;36.40;36.20
38848;DHT22;24602;44.780;20.408;2022-07-23T13:01:33;36.90;35.20
38848;DHT22;24602;44.780;20.408;2022-07-23T13:06:44;37.30;34.60
38848;DHT22;24602;44.780;20.408;2022-07-23T13:09:15;37.70;34.40
38848;DHT22;24602;44.780;20.408;2022-07-23T13:11:45;38.10;34.20
38848;DHT22;24602;44.780;20.408;2022-07-23T13:14:15;38.50;33.80
38848;DHT22;24602;44.780;20.408;2022-07-23T13:16:44;39.40;32.80
38848;DHT22;24602;44.780;20.408;2022-07-23T13:19:12;40.70;31.40
38848;DHT22;24602;44.780;20.408;2022-07-23T13:21:41;41.80;30.10
38848;DHT22;24602;44.780;20.408;2022-07-23T13:24:11;43.10;29.20
38848;DHT22;24602;44.780;20.408;2022-07-23T13:26:39;43.90;28.00
38848;DHT22;24602;44.780;20.408;2022-07-23T13:29:07;45.10;27.90
38848;DHT22;24602;44.780;20.408;2022-07-23T13:31:37;46.10;27.30
38848;DHT22;24602;44.780;20.408;2022-07-23T13:34:06;47.10;26.20
38848;DHT22;24602;44.780;20.408;2022-07-23T13:36:35;47.50;26.40
38848;DHT22;24602;44.780;20.408;2022-07-23T13:39:04;47.20;25.60
38848;DHT22;24602;44.780;20.408;2022-07-23T13:41:37;48.20;25.00
38848;DHT22;24602;44.780;20.408;2022-07-23T13:44:04;47.50;24.80
38848;DHT22;24602;44.780;20.408;2022-07-23T13:46:34;48.40;24.70
38848;DHT22;24602;44.780;20.408;2022-07-23T13:49:02;48.20;24.20
38848;DHT22;24602;44.780;20.408;2022-07-23T13:51:36;48.70;24.30
38848;DHT22;24602;44.780;20.408;2022-07-23T13:54:03;48.50;23.80
38848;DHT22;24602;44.780;20.408;2022-07-23T13:56:36;47.80;24.10
38848;DHT22;24602;44.780;20.408;2022-07-23T13:59:03;47.40;24.80
38848;DHT22;24602;44.780;20.408;2022-07-23T14:01:33;47.00;25.30
38848;DHT22;24602;44.780;20.408;2022-07-23T14:04:16;46.80;25.70
38848;DHT22;24602;44.780;20.408;2022-07-23T14:06:44;46.40;25.60
38848;DHT22;24602;44.780;20.408;2022-07-23T14:09:18;45.20;25.20
38848;DHT22;24602;44.780;20.408;2022-07-23T14:11:46;45.00;25.70
38848;DHT22;24602;44.780;20.408;2022-07-23T14:14:13;44.20;25.70
38848;DHT22;24602;44.780;20.408;2022-07-23T14:16:41;43.80;26.00
38848;DHT22;24602;44.780;20.408;2022-07-23T14:19:09;44.00;26.80
38848;DHT22;24602;44.780;20.408;2022-07-23T14:21:37;43.50;26.60
38848;DHT22;24602;44.780;20.408;2022-07-23T14:24:05;43.20;25.90
38848;DHT22;24602;44.780;20.408;2022-07-23T14:26:33;42.80;26.10
38848;DHT22;24602;44.780;20.408;2022-07-23T14:29:01;42.80;26.70
38848;DHT22;24602;44.780;20.408;2022-07-23T14:31:29;42.90;27.00
38848;DHT22;24602;44.780;20.408;2022-07-23T14:33:57;43.10;27.20
38848;DHT22;24602;44.780;20.408;2022-07-23T14:36:26;43.30;26.80
38848;DHT22;24602;44.780;20.408;2022-07-23T14:38:54;43.30;27.10
38848;DHT22;24602;44.780;20.408;2022-07-23T14:41:23;43.20;27.20
38848;DHT22;24602;44.780;20.408;2022-07-23T14:43:54;42.80;27.40
38848;DHT22;24602;44.780;20.408;2022-07-23T14:46:21;42.70;27.90
38848;DHT22;24602;44.780;20.408;2022-07-23T14:48:49;42.90;27.70
38848;DHT22;24602;44.780;20.408;2022-07-23T14:51:17;42.90;27.60
38848;DHT22;24602;44.780;20.408;2022-07-23T14:53:45;42.90;27.90
38848;DHT22;24602;44.780;20.408;2022-07-23T14:56:13;43.00;27.80
38848;DHT22;24602;44.780;20.408;2022-07-23T14:58:41;43.00;27.70
38848;DHT22;24602;44.780;20.408;2022-07-23T15:01:09;43.10;28.00
38848;DHT22;24602;44.780;20.408;2022-07-23T15:03:38;43.10;28.80
38848;DHT22;24602;44.780;20.408;2022-07-23T15:06:09;43.20;28.50
38848;DHT22;24602;44.780;20.408;2022-07-23T15:08:38;43.40;28.50
38848;DHT22;24602;44.780;20.408;2022-07-23T15:11:06;43.40;28.30
38848;DHT22;24602;44.780;20.408;2022-07-23T15:13:36;43.50;27.50
38848;DHT22;24602;44.780;20.408;2022-07-23T15:16:06;43.40;27.80
38848;DHT22;24602;44.780;20.408;2022-07-23T15:18:36;43.40;27.70
38848;DHT22;24602;44.780;20.408;2022-07-23T15:21:04;43.40;28.30
38848;DHT22;24602;44.780;20.408;2022-07-23T15:23:32;43.60;28.00
38848;DHT22;24602;44.780;20.408;2022-07-23T15:26:02;43.60;27.60
38848;DHT22;24602;44.780;20.408;2022-07-23T15:28:29;43.60;27.60
38848;DHT22;24602;44.780;20.408;2022-07-23T15:30:56;43.40;28.20
38848;DHT22;24602;44.780;20.408;2022-07-23T15:33:24;43.30;27.60
38848;DHT22;24602;44.780;20.408;2022-07-23T15:35:52;43.30;28.00
38848;DHT22;24602;44.780;20.408;2022-07-23T15:38:22;43.30;28.00
38848;DHT22;24602;44.780;20.408;2022-07-23T15:40:55;43.60;28.00
38848;DHT22;24602;44.780;20.408;2022-07-23T15:43:24;43.80;28.30
38848;DHT22;24602;44.780;20.408;2022-07-23T15:45:53;43.70;27.90
38848;DHT22;24602;44.780;20.408;2022-07-23T15:48:21;43.50;28.00
38848;DHT22;24602;44.780;20.408;2022-07-23T15:50:49;43.50;28.10
38848;DHT22;24602;44.780;20.408;2022-07-23T15:53:17;43.30;28.30
38848;DHT22;24602;44.780;20.408;2022-07-23T15:56:05;43.10;28.60
38848;DHT22;24602;44.780;20.408;2022-07-23T15:58:41;43.00;28.90
38848;DHT22;24602;44.780;20.408;2022-07-23T16:01:10;43.10;29.00
38848;DHT22;24602;44.780;20.408;2022-07-23T16:03:37;43.10;28.50